Time;durP1;ratioP1;P1;durP2;ratioP2;P2;SDS_P1;SDS_P2;PMS_P1;PMS_P2;Temp;Humidity;BMP_temperature;BMP_pressure;BME280_temperature;BME280_humidity;BME280_pressure;Samples;Min_cycle;Max_cycle;Signal;HPM_P1;HPM_P2
2022/05/23 00:00:19;;;;;;;20.52;15.18;;;18.50;99.90;;;18.84;65.08;100660.91;4862227;29;20064;-61
2022/05/23 00:02:48;;;;;;;19.40;15.13;;;18.50;99.90;;;18.81;65.51;100656.53;4861609;29;20082;-61
2022/05/23 00:05:17;;;;;;;19.48;16.10;;;18.40;99.90;;;18.73;65.48;100650.66;4861660;29;20497;-61
2022/05/23 00:07:49;;;;;;;23.13;15.70;;;18.40;99.90;;;18.93;65.37;100641.75;4861814;29;20397;-61
2022/05/23 00:10:21;;;;;;;24.65;16.48;;;18.50;99.90;;;18.98;64.84;100641.56;4861476;29;20488;-61
2022/05/23 00:12:50;;;;;;;22.83;16.63;;;18.60;99.90;;;19.23;64.73;100647.63;4861749;29;20512;-62
2022/05/23 00:15:19;;;;;;;25.33;15.80;;;18.80;99.90;;;19.44;64.04;100636.88;4861533;29;20046;-61
2022/05/23 00:17:49;;;;;;;22.50;15.68;;;19.00;99.90;;;19.50;63.51;100627.66;4861771;29;20099;-61
2022/05/23 00:20:22;;;;;;;19.20;14.90;;;19.10;99.90;;;19.33;63.66;100600.72;4862113;29;20412;-61
2022/05/23 00:22:50;;;;;;;20.02;15.18;;;19.10;99.90;;;19.20;63.70;100591.47;4861568;29;20310;-62
2022/05/23 00:25:20;;;;;;;20.15;15.65;;;19.10;99.90;;;19.36;63.95;100616.69;4860656;29;20484;-62
2022/05/23 00:27:48;;;;;;;20.90;15.60;;;19.00;99.90;;;19.23;64.51;100618.13;4861812;29;20080;-61
2022/05/23 00:30:21;;;;;;;18.08;14.95;;;18.90;99.90;;;19.24;64.41;100611.84;4861734;29;20053;-61
2022/05/23 00:35:37;;;;;;;20.80;15.77;;;18.90;99.90;;;19.21;64.76;100611.97;4861790;29;20073;-61
2022/05/23 00:38:05;;;;;;;20.85;15.70;;;18.90;99.90;;;18.58;64.73;100493.19;4861612;29;20567;-62
2022/05/23 00:40:49;;;;;;;18.23;14.20;;;18.80;99.90;;;19.14;64.87;100602.44;4860507;29;20057;-61
2022/05/23 00:43:26;;;;;;;22.65;15.55;;;18.70;99.90;;;19.03;65.37;100607.41;4861115;29;20496;-61
2022/05/23 00:46:02;;;;;;;17.58;15.60;;;18.60;99.90;;;19.12;65.11;100599.84;4861338;29;20045;-61
2022/05/23 00:48:33;;;;;;;24.55;16.25;;;18.70;99.90;;;19.08;65.15;100600.03;4861048;29;20120;-62
2022/05/23 00:51:12;;;;;;;20.38;15.38;;;18.70;99.90;;;19.16;64.93;100580.00;4861527;29;20425;-61
2022/05/23 00:53:47;;;;;;;19.83;15.27;;;18.80;99.90;;;19.33;64.57;100581.97;4861504;29;20201;-61
2022/05/23 00:56:19;;;;;;;20.52;15.93;;;18.90;99.90;;;19.19;64.99;100592.38;4859693;29;20110;-62
2022/05/23 00:58:51;;;;;;;21.25;14.95;;;18.90;99.90;;;19.25;64.93;100590.31;4861270;29;20448;-62
2022/05/23 01:01:24;;;;;;;19.00;15.27;;;18.90;99.90;;;19.32;65.00;100580.16;4860986;29;20152;-61
2022/05/23 01:03:54;;;;;;;21.73;15.90;;;18.90;99.90;;;19.14;65.23;100589.03;4859377;29;20464;-62
2022/05/23 01:06:23;;;;;;;20.20;16.40;;;18.80;99.90;;;18.88;66.14;100577.66;4859470;29;20133;-62
2022/05/23 01:08:55;;;;;;;17.50;15.70;;;18.50;99.90;;;18.65;66.85;100553.63;4860494;29;20045;-61
2022/05/23 01:11:25;;;;;;;18.63;14.98;;;18.40;99.90;;;18.71;67.17;100569.47;4860384;29;20479;-62
2022/05/23 01:13:54;;;;;;;25.08;16.55;;;18.40;99.90;;;18.62;67.57;100569.81;4859460;29;20053;-61
2022/05/23 01:16:25;;;;;;;20.70;16.17;;;18.30;99.90;;;18.57;67.85;100570.97;4859382;29;20045;-61
2022/05/23 01:18:58;;;;;;;20.13;15.52;;;18.20;99.90;;;18.56;68.14;100579.94;4859178;29;20144;-61
2022/05/23 01:21:40;;;;;;;22.52;16.08;;;18.20;99.90;;;18.53;67.99;100569.34;4874574;29;20061;-62
2022/05/23 01:24:16;;;;;;;21.83;16.60;;;18.20;99.90;;;18.64;68.01;100578.66;4859112;29;20128;-61
2022/05/23 01:26:53;;;;;;;22.50;16.05;;;18.20;99.90;;;18.65;67.83;100574.19;4859092;29;20082;-61
2022/05/23 01:29:31;;;;;;;22.05;16.35;;;18.30;99.90;;;18.62;67.86;100567.16;4859058;29;20060;-61
2022/05/23 01:32:18;;;;;;;19.27;16.30;;;18.30;99.90;;;18.70;67.80;100572.19;4859050;29;20045;-61
2022/05/23 01:34:49;;;;;;;21.95;16.48;;;18.30;99.90;;;18.64;67.99;100570.63;4858918;29;20404;-61
2022/05/23 01:37:22;;;;;;;23.55;15.75;;;18.30;99.90;;;18.64;68.07;100561.75;4858929;29;20532;-61
2022/05/23 01:40:13;;;;;;;23.83;16.00;;;18.30;99.90;;;18.50;68.71;100562.31;4858818;29;20057;-61
2022/05/23 01:42:55;;;;;;;20.50;15.52;;;18.20;99.90;;;18.58;68.56;100556.66;4858743;29;20098;-61
2022/05/23 01:45:26;;;;;;;23.58;16.55;;;18.20;99.90;;;18.48;68.91;100560.63;4858816;29;20057;-61
2022/05/23 01:47:57;;;;;;;20.77;16.38;;;18.10;99.90;;;18.49;68.99;100560.56;4858769;29;20465;-61
2022/05/23 01:50:26;;;;;;;21.48;17.17;;;18.20;99.90;;;18.55;69.03;100564.78;4858640;29;20454;-61
2022/05/23 01:53:00;;;;;;;20.80;17.17;;;18.20;99.90;;;18.61;68.99;100560.06;4858509;29;20057;-62
2022/05/23 01:55:51;;;;;;;19.75;16.35;;;18.20;99.90;;;18.74;68.78;100558.59;4859590;29;20061;-61
2022/05/23 02:01:14;;;;;;;17.35;15.40;;;18.50;99.90;;;19.11;67.92;100563.22;4857989;29;20109;-61
2022/05/23 02:03:55;;;;;;;26.00;16.00;;;18.60;99.90;;;19.03;67.93;100549.28;4858545;29;20172;-61
2022/05/23 02:06:26;;;;;;;21.50;16.08;;;18.70;99.90;;;19.30;67.61;100556.09;4858652;29;20046;-61
2022/05/23 02:08:59;;;;;;;24.00;15.25;;;18.80;99.90;;;19.43;67.18;100553.78;4858241;29;20479;-61
2022/05/23 02:11:33;;;;;;;17.17;14.20;;;19.00;99.90;;;19.36;66.96;100530.84;4858025;29;20064;-61
2022/05/23 02:14:03;;;;;;;19.10;15.43;;;19.10;99.90;;;19.54;66.62;100552.34;4858502;29;20200;-61
2022/05/23 02:16:39;;;;;;;16.98;15.18;;;19.10;99.90;;;19.65;66.50;100544.66;4860180;29;20139;-63
2022/05/23 02:19:07;;;;;;;20.55;15.20;;;19.20;99.90;;;19.73;66.33;100539.81;4862374;29;20407;-61
2022/05/23 02:21:36;;;;;;;19.38;14.93;;;19.30;99.90;;;19.76;66.01;100538.81;4862480;29;20068;-62
2022/05/23 02:24:05;;;;;;;18.58;14.93;;;19.40;99.90;;;19.75;65.77;100537.94;4862174;29;20530;-61
2022/05/23 02:26:34;;;;;;;20.50;13.63;;;19.40;99.90;;;19.77;65.76;100525.31;4862164;29;20121;-61
2022/05/23 02:29:18;;;;;;;20.13;14.57;;;19.40;99.90;;;19.75;65.52;100527.19;4861921;29;20057;-61
2022/05/23 02:31:48;;;;;;;22.73;15.13;;;19.40;99.90;;;19.20;67.10;100529.78;4862139;29;20105;-62
2022/05/23 02:34:18;;;;;;;19.52;15.43;;;19.00;99.90;;;18.90;67.87;100499.84;4862311;29;20491;-62
2022/05/23 02:36:50;;;;;;;21.40;15.23;;;18.80;99.90;;;18.78;68.65;100508.41;4862314;29;20046;-61
2022/05/23 02:39:26;;;;;;;19.70;15.27;;;18.50;99.90;;;18.85;69.11;100502.72;4863588;29;20057;-61
2022/05/23 02:41:54;;;;;;;19.88;15.20;;;18.50;99.90;;;18.75;69.13;100498.72;4863163;29;20541;-61
2022/05/23 02:44:28;;;;;;;21.80;15.55;;;18.40;99.90;;;18.87;68.77;100495.47;4862069;29;20124;-61
2022/05/23 02:46:56;;;;;;;18.63;15.43;;;18.50;99.90;;;18.85;68.62;100494.66;4862095;29;20156;-61
2022/05/23 02:49:28;;;;;;;20.13;15.57;;;18.50;99.90;;;18.63;69.15;100484.97;4861869;29;20053;-62
2022/05/23 02:51:58;;;;;;;19.23;15.32;;;18.40;99.90;;;18.77;69.11;100486.13;4861579;29;20053;-62
2022/05/23 02:54:33;;;;;;;18.67;14.88;;;18.40;99.90;;;18.79;69.30;100472.66;4861546;29;20054;-62
2022/05/23 02:57:04;;;;;;;;;;;18.40;99.90;;;18.81;68.99;100468.09;4862302;29;20125;-61
2022/05/23 02:59:34;;;;;;;19.45;14.13;;;18.50;99.90;;;19.01;68.74;100465.38;4861734;29;19928;-61
2022/05/23 03:04:55;;;;;;;20.85;15.38;;;18.60;99.90;;;19.11;68.27;100453.28;4861726;29;20046;-61
2022/05/23 03:07:24;;;;;;;20.83;15.20;;;18.70;99.90;;;18.98;68.22;100448.56;4861794;29;20049;-61
2022/05/23 03:10:10;;;;;;;19.02;13.82;;;18.70;99.90;;;19.15;68.00;100435.25;4861759;29;20132;-62
2022/05/23 03:12:38;;;;;;;21.42;13.90;;;18.80;99.90;;;19.28;67.66;100431.06;4862548;29;20479;-61
2022/05/23 03:15:10;;;;;;;16.67;14.73;;;18.80;99.90;;;19.39;67.53;100423.41;4861691;29;20463;-61
2022/05/23 03:17:40;;;;;;;19.27;14.77;;;18.90;99.90;;;19.12;67.23;100404.09;4861597;29;20056;-61
2022/05/23 03:20:10;;;;;;;16.75;13.00;;;18.90;99.90;;;19.32;67.14;100422.81;4861625;29;20054;-61
2022/05/23 03:28:10;;;;;;;22.92;14.23;;;19.10;99.90;;;19.53;66.44;100410.22;4860621;29;20421;-61
2022/05/23 03:30:40;;;;;;;20.63;14.45;;;19.10;99.90;;;19.57;66.01;100406.41;4862736;29;20412;-61
2022/05/23 03:33:11;;;;;;;;;;;19.20;99.90;;;19.53;65.79;100399.50;4861994;29;20576;-61
2022/05/23 03:35:41;;;;;;;20.60;14.65;;;19.20;99.90;;;19.05;66.70;100375.81;4863060;29;19928;-61
2022/05/23 03:38:09;;;;;;;17.33;13.40;;;18.90;99.90;;;19.17;67.14;100395.81;4862903;29;20136;-62
2022/05/23 03:40:41;;;;;;;19.08;14.27;;;18.80;99.90;;;19.20;67.23;100388.50;4861409;29;20530;-61
2022/05/23 03:43:11;;;;;;;20.00;13.88;;;18.80;99.90;;;19.34;67.13;100379.81;4861230;29;20045;-61
2022/05/23 03:45:41;;;;;;;17.65;13.02;;;18.80;99.90;;;19.36;66.73;100372.56;4860924;29;20049;-61
2022/05/23 03:48:12;;;;;;;16.75;13.27;;;18.90;99.90;;;19.37;66.79;100385.06;4861056;29;20129;-61
2022/05/23 03:50:42;;;;;;;17.77;13.23;;;19.00;99.90;;;19.45;66.60;100364.09;4876349;29;20046;-62
2022/05/23 03:53:11;;;;;;;16.70;12.85;;;19.00;99.90;;;19.18;67.20;100373.44;4860900;29;20437;-61
2022/05/23 03:55:43;;;;;;;14.80;12.48;;;18.80;99.90;;;18.97;67.85;100366.41;4860756;29;20049;-63
2022/05/23 03:58:15;;;;;;;18.70;13.68;;;18.70;99.90;;;18.51;69.43;100363.16;4861069;29;20054;-62
2022/05/23 04:00:49;;;;;;;21.02;14.45;;;18.30;99.90;;;18.37;69.88;100362.00;4860683;29;20053;-62
2022/05/23 04:03:17;;;;;;;18.23;14.18;;;18.10;99.90;;;18.33;70.31;100350.53;4860290;29;20057;-61
2022/05/23 04:05:47;;;;;;;17.75;13.88;;;18.00;99.90;;;18.14;71.10;100354.97;4860119;29;20049;-61
2022/05/23 04:08:36;;;;;;;16.67;14.15;;;17.90;99.90;;;18.02;71.57;100360.88;4861317;29;20065;-62
2022/05/23 04:11:07;;;;;;;20.55;14.93;;;17.70;99.90;;;18.09;71.96;100361.47;4860232;29;20084;-61
2022/05/23 04:13:37;;;;;;;20.17;13.68;;;17.70;99.90;;;18.11;72.17;100352.44;4861745;29;20053;-62
2022/05/23 04:16:07;;;;;;;19.30;14.27;;;17.70;99.90;;;18.37;71.53;100351.28;4860329;29;20085;-62
2022/05/23 04:18:36;;;;;;;20.50;14.98;;;17.90;99.90;;;18.44;71.38;100353.66;4860218;29;20110;-62
2022/05/23 04:21:06;;;;;;;22.45;15.00;;;18.00;99.90;;;18.32;71.43;100355.97;4860149;29;20053;-61
2022/05/23 04:23:36;;;;;;;20.83;14.35;;;18.00;99.90;;;18.51;71.56;100347.06;4860103;29;20408;-60
2022/05/23 04:26:08;;;;;;;19.67;13.95;;;18.10;99.90;;;18.72;70.84;100346.09;4860010;29;20053;-60
2022/05/23 04:28:40;;;;;;;23.42;14.00;;;18.30;99.90;;;18.68;70.29;100340.94;4860040;29;20055;-61
2022/05/23 04:31:11;;;;;;;19.45;15.13;;;18.30;99.90;;;18.70;70.01;100342.63;4859951;29;20113;-61
2022/05/23 04:36:52;;;;;;;21.48;14.20;;;18.10;99.90;;;18.48;71.21;100328.47;4859961;29;20110;-61
2022/05/23 04:39:30;;;;;;;17.13;13.77;;;18.10;99.90;;;18.66;71.15;100314.22;4859397;29;20144;-61
2022/05/23 04:42:00;;;;;;;20.08;14.40;;;18.20;99.90;;;18.71;70.63;100311.34;4859850;29;20460;-61
2022/05/23 04:44:29;;;;;;;21.45;15.50;;;18.30;99.90;;;18.30;71.50;100304.28;4859774;29;20540;-62
2022/05/23 04:49:49;;;;;;;20.38;14.02;;;18.10;99.90;;;18.38;71.59;100302.13;4859718;29;20077;-61
2022/05/23 04:52:38;;;;;;;19.85;13.98;;;18.00;99.90;;;18.52;71.50;100297.06;4860513;29;20061;-60
2022/05/23 04:55:08;;;;;;;15.85;13.40;;;18.10;99.90;;;18.37;71.66;100295.06;4859533;29;20515;-61
2022/05/23 04:57:38;;;;;;;23.02;14.18;;;18.10;99.90;;;18.23;72.31;100294.81;4859537;29;20057;-61
2022/05/23 05:00:11;;;;;;;19.90;14.38;;;17.90;99.90;;;18.20;72.49;100298.47;4859429;29;20046;-61
2022/05/23 05:02:49;;;;;;;;;;;17.80;99.90;;;18.12;72.77;100299.78;4859807;29;20060;-61
2022/05/23 05:05:20;;;;;;;21.25;14.38;;;17.80;99.90;;;17.99;73.30;100300.31;4859260;29;19932;-61
2022/05/23 05:07:53;;;;;;;22.52;14.73;;;17.70;99.90;;;17.93;73.73;100302.38;4859399;29;20053;-61
2022/05/23 05:10:23;;;;;;;17.08;13.50;;;17.60;99.90;;;17.67;75.43;100299.97;4859481;29;20057;-61
2022/05/23 05:12:52;;;;;;;22.13;15.40;;;17.40;99.90;;;17.70;75.64;100284.63;4860116;29;20057;-62
2022/05/23 05:15:25;;;;;;;20.80;14.55;;;17.30;99.90;;;17.74;76.13;100278.22;4859321;29;20388;-61
2022/05/23 05:17:57;;;;;;;20.95;14.75;;;17.40;99.90;;;17.54;76.81;100283.53;4859281;29;20473;-61
2022/05/23 05:20:29;;;;;;;20.40;14.43;;;17.20;99.90;;;17.62;76.44;100277.84;4859151;29;20140;-61
2022/05/23 05:23:00;;;;;;;21.08;14.25;;;17.20;99.90;;;17.78;75.98;100263.78;4860512;29;20404;-61
2022/05/23 05:25:52;;;;;;;21.83;14.73;;;17.40;99.90;;;17.91;75.05;100269.44;4858960;29;20065;-60
2022/05/23 05:28:27;;;;;;;19.30;14.20;;;17.50;99.90;;;17.95;75.42;100257.69;4859055;29;20500;-61
2022/05/23 05:31:02;;;;;;;21.95;14.45;;;17.50;99.90;;;18.15;74.79;100246.97;4860378;29;20046;-61
2022/05/23 05:33:36;;;;;;;22.35;14.05;;;17.70;99.90;;;18.37;74.23;100246.84;4859910;29;20491;-61
2022/05/23 05:36:09;;;;;;;22.73;14.75;;;18.00;99.90;;;18.50;73.30;100250.72;4859898;29;20080;-61
2022/05/23 05:38:48;;;;;;;20.65;14.20;;;18.10;99.90;;;18.51;72.79;100242.63;4860163;29;20077;-61
2022/05/23 05:41:36;;;;;;;22.35;14.68;;;18.10;99.90;;;18.71;72.47;100234.50;4860339;29;20076;-61
2022/05/23 05:44:07;;;;;;;17.52;13.60;;;18.30;99.90;;;18.95;71.60;100245.00;4858738;29;20049;-61
2022/05/23 05:46:44;;;;;;;19.40;13.10;;;18.50;99.90;;;19.01;71.41;100234.81;4858676;29;20136;-60
2022/05/23 05:49:26;;;;;;;21.08;13.93;;;18.70;99.90;;;19.06;70.89;100216.72;4858777;29;20067;-60
2022/05/23 05:52:01;;;;;;;18.63;13.02;;;18.80;99.90;;;18.92;70.77;100240.66;4857903;29;20358;-60
2022/05/23 05:54:36;;;;;;;23.40;14.93;;;18.70;99.90;;;18.78;71.64;100237.75;4858558;29;20054;-60
2022/05/23 05:57:13;;;;;;;20.90;14.52;;;18.50;99.90;;;18.76;71.51;100240.50;4858696;29;20053;-60
2022/05/23 05:59:42;;;;;;;23.20;14.15;;;18.40;99.90;;;18.70;72.20;100230.09;4858711;29;20062;-60
2022/05/23 06:02:12;;;;;;;;;;;18.40;99.90;;;18.63;72.62;100234.00;4859029;29;20045;-60
2022/05/23 06:04:42;;;;;;;20.80;14.10;;;18.30;99.90;;;18.80;72.08;100231.38;4858744;29;19924;-61
2022/05/23 06:13:13;;;;;;;18.88;13.38;;;18.90;99.90;;;19.50;70.27;100228.78;4858177;29;20484;-61
2022/05/23 06:15:45;;;;;;;18.58;12.93;;;19.10;99.90;;;19.61;69.61;100222.84;4858701;29;20064;-60
2022/05/23 06:18:14;;;;;;;20.38;13.13;;;19.20;99.90;;;19.53;69.15;100217.03;4858830;29;20060;-60
2022/05/23 06:20:47;;;;;;;19.38;13.27;;;19.10;99.90;;;19.66;69.06;100229.75;4858949;29;20101;-60
2022/05/23 06:23:15;;;;;;;19.17;13.50;;;19.20;99.90;;;19.69;68.89;100220.66;4858497;29;20046;-62
2022/05/23 06:25:52;;;;;;;21.38;13.65;;;19.30;99.90;;;19.72;68.71;100217.81;4874342;29;20058;-61
2022/05/23 06:28:36;;;;;;;23.42;13.90;;;19.30;99.90;;;19.91;68.34;100209.66;4859059;29;20052;-61
2022/05/23 06:31:06;;;;;;;18.27;13.38;;;19.50;99.90;;;19.97;68.03;100228.13;4859182;29;20504;-62
2022/05/23 06:33:39;;;;;;;17.05;13.13;;;19.60;99.90;;;19.79;68.17;100203.13;4859375;29;20618;-60
2022/05/23 06:36:16;;;;;;;19.15;13.02;;;19.50;99.90;;;20.05;67.96;100202.63;4858557;29;20057;-60
2022/05/23 06:38:44;;;;;;;18.10;12.57;;;19.60;99.90;;;20.16;67.86;100210.97;4858559;29;20053;-61
2022/05/23 06:41:48;;;;;;;19.60;12.85;;;19.70;99.90;;;20.28;67.51;100207.66;4802550;29;20059;-61
2022/05/23 06:44:40;;;;;;;22.20;13.35;;;19.90;99.90;;;20.39;67.21;100215.09;4852090;29;20148;-61
2022/05/23 06:47:27;;;;;;;14.57;12.55;;;20.00;99.90;;;20.47;66.89;100213.75;4859452;29;20068;-62
2022/05/23 06:50:30;;;;;;;16.15;12.25;;;20.10;99.90;;;20.56;66.39;100210.53;4859185;29;20137;-62
2022/05/23 06:53:11;;;;;;;18.08;12.98;;;20.20;99.90;;;20.64;66.27;100200.22;4858436;29;20076;-61
2022/05/23 06:55:49;;;;;;;21.17;12.85;;;20.20;99.90;;;20.74;65.58;100210.44;4858228;29;20516;-61
2022/05/23 06:58:21;;;;;;;19.42;13.52;;;20.30;99.90;;;20.66;65.53;100205.50;4857991;29;20085;-61
2022/05/23 07:00:51;;;;;;;17.90;12.63;;;20.30;99.90;;;20.68;64.98;100208.97;4857908;29;20456;-61
2022/05/23 07:03:24;;;;;;;19.02;12.95;;;20.30;99.90;;;20.74;64.98;100211.31;4860622;29;20148;-62
2022/05/23 07:14:31;;;;;;;19.27;13.38;;;20.50;99.90;;;21.01;64.05;100198.16;4790075;29;20382;-60
2022/05/23 07:17:00;;;;;;;17.92;13.00;;;20.60;99.90;;;21.05;63.54;100194.31;4790164;29;20062;-60
2022/05/23 07:19:48;;;;;;;16.63;13.23;;;20.60;99.90;;;20.96;63.65;100192.16;4817940;29;20199;-60
2022/05/23 07:22:19;;;;;;;22.38;13.27;;;20.60;99.90;;;20.84;64.15;100174.03;4824346;29;20054;-61
2022/05/23 07:24:50;;;;;;;20.88;14.55;;;20.60;99.90;;;20.98;64.17;100192.91;4825639;29;20125;-60
2022/05/23 07:27:26;;;;;;;21.77;13.45;;;20.60;99.90;;;20.67;65.41;100200.03;4824024;29;20050;-60
2022/05/23 07:29:55;;;;;;;22.30;13.70;;;20.40;99.90;;;20.23;66.76;100204.31;4824297;29;20133;-61
2022/05/23 07:32:27;;;;;;;16.77;12.93;;;20.00;99.90;;;19.53;69.19;100195.56;4823858;29;20087;-61
2022/05/23 07:34:55;;;;;;;21.63;14.10;;;19.30;99.90;;;19.53;70.77;100192.91;4824012;29;20066;-60
2022/05/23 07:37:24;;;;;;;20.52;15.10;;;19.10;99.90;;;19.34;71.67;100167.94;4823945;29;20150;-60
2022/05/23 07:39:56;;;;;;;27.77;14.73;;;19.00;99.90;;;19.80;71.00;100183.41;4823937;29;20055;-60
2022/05/23 07:42:41;;;;;;;22.67;14.80;;;19.20;99.90;;;19.57;71.14;100175.66;4823697;29;20115;-60
2022/05/23 07:45:11;;;;;;;17.70;14.02;;;19.20;99.90;;;19.53;70.34;100176.81;4823895;29;20489;-60
2022/05/23 07:47:42;;;;;;;23.55;15.70;;;19.20;99.90;;;19.40;69.52;100173.00;4823775;29;20523;-61
2022/05/23 07:50:21;;;;;;;21.95;15.98;;;19.00;99.90;;;19.39;69.94;100171.28;4824142;29;20054;-60
2022/05/23 08:01:15;;;;;;;23.30;16.55;;;19.20;99.90;;;20.01;70.33;100165.25;4790925;29;20065;-60
2022/05/23 08:03:54;;;;;;;21.63;15.85;;;19.50;99.90;;;20.10;69.58;100162.06;4823590;29;20058;-61
2022/05/23 08:06:28;;;;;;;25.27;17.88;;;19.60;99.90;;;20.15;69.63;100163.53;4823567;29;20050;-61
2022/05/23 08:08:57;;;;;;;25.10;17.50;;;19.70;99.90;;;20.23;69.31;100158.66;4823537;29;20066;-61
2022/05/23 08:11:27;;;;;;;23.63;16.60;;;19.80;99.90;;;20.73;69.05;100157.66;4823571;29;20146;-61
2022/05/23 08:14:07;;;;;;;26.70;16.58;;;20.20;99.90;;;20.92;67.61;100150.25;4859339;29;20050;-61
2022/05/23 08:16:45;;;;;;;24.35;17.42;;;20.50;99.90;;;21.08;67.17;100141.22;4860207;29;20053;-61
2022/05/23 08:19:13;;;;;;;23.25;16.27;;;20.70;99.90;;;21.26;66.60;100139.25;4860128;29;20136;-61
2022/05/23 08:21:49;;;;;;;23.08;17.40;;;20.90;99.90;;;21.25;65.77;100119.56;4860119;29;20128;-61
2022/05/23 08:24:18;;;;;;;25.95;17.13;;;20.90;99.90;;;21.40;64.74;100125.84;4860083;29;20053;-61
2022/05/23 08:26:48;;;;;;;32.38;17.42;;;21.00;99.90;;;21.51;64.20;100118.84;4875373;29;20156;-60
2022/05/23 08:29:17;;;;;;;32.30;18.67;;;21.10;99.90;;;21.62;63.58;100110.13;4859997;29;20057;-61
2022/05/23 08:32:01;;;;;;;31.15;17.98;;;21.30;99.90;;;21.70;63.79;100125.81;4875499;29;20139;-62
2022/05/23 08:34:43;;;;;;;25.40;16.67;;;21.30;99.90;;;21.92;63.77;100118.13;4859538;29;20049;-61
2022/05/23 08:37:14;;;;;;;34.10;17.77;;;21.50;99.90;;;21.95;62.71;100117.97;4859795;29;20154;-61
2022/05/23 08:39:42;;;;;;;24.83;17.35;;;21.60;99.90;;;21.98;62.12;100112.38;4859481;29;20045;-61
2022/05/23 08:42:34;;;;;;;28.33;18.13;;;21.60;99.90;;;21.89;62.33;100097.66;4875277;29;20084;-61
2022/05/23 08:45:24;;;;;;;25.60;17.55;;;21.60;99.90;;;22.03;62.81;100100.34;4859779;29;20046;-61
2022/05/23 08:48:08;;;;;;;25.00;16.95;;;21.60;99.90;;;22.33;62.60;100105.59;4859748;29;20054;-61
2022/05/23 08:50:59;;;;;;;25.50;16.73;;;21.80;99.90;;;22.53;61.95;100104.31;4859649;29;20050;-61
2022/05/23 08:53:49;;;;;;;23.02;16.05;;;22.00;99.90;;;22.64;61.28;100094.56;4859776;29;20060;-61
2022/05/23 08:56:41;;;;;;;31.92;18.05;;;22.30;99.90;;;22.25;62.49;100100.72;4860966;29;20072;-61
2022/05/23 08:59:26;;;;;;;25.60;17.40;;;21.90;99.90;;;21.85;64.12;100098.81;4859649;29;20065;-61
2022/05/23 09:02:02;;;;;;;24.27;17.00;;;21.50;99.90;;;21.96;63.81;100090.94;4859678;29;20050;-61
2022/05/23 09:04:42;;;;;;;28.52;17.98;;;21.50;99.90;;;21.83;64.58;100081.03;4859593;29;20073;-61
2022/05/23 09:07:24;;;;;;;33.75;18.10;;;21.50;99.90;;;21.58;65.86;100077.13;4875110;29;20117;-61
2022/05/23 09:09:57;;;;;;;27.25;17.90;;;21.20;99.90;;;21.92;64.99;100072.34;4861149;29;20117;-61
2022/05/23 09:12:25;;;;;;;23.92;16.40;;;21.40;99.90;;;22.01;62.13;100077.19;4860601;29;20089;-61
2022/05/23 09:14:54;;;;;;;24.50;17.17;;;21.60;99.90;;;22.08;61.55;100082.06;4860912;29;20045;-61
2022/05/23 09:17:28;;;;;;;28.92;17.83;;;21.70;99.90;;;21.95;62.54;100080.25;4860993;29;20057;-61
2022/05/23 09:20:02;;;;;;;30.15;18.00;;;21.60;99.90;;;21.40;66.18;100080.97;4860715;29;20049;-61
2022/05/23 09:22:43;;;;;;;23.30;18.02;;;21.20;99.90;;;20.83;68.47;100075.53;4861137;29;20058;-61
2022/05/23 09:25:16;;;;;;;27.33;17.38;;;20.60;99.90;;;20.85;71.14;100076.28;4861272;29;20060;-61
2022/05/23 09:27:51;;;;;;;28.75;19.30;;;20.40;99.90;;;20.83;70.45;100065.59;4860803;29;20045;-61
2022/05/23 09:30:23;;;;;;;24.05;18.55;;;20.40;99.90;;;20.84;70.71;100059.28;4860855;29;20141;-61
2022/05/23 09:32:56;;;;;;;31.88;18.98;;;20.40;99.90;;;20.90;71.57;100048.16;4860306;29;20048;-61
2022/05/23 09:35:28;;;;;;;23.95;19.23;;;20.50;99.90;;;21.02;70.10;100039.38;4860490;29;20136;-61
2022/05/23 09:38:15;;;;;;;25.80;18.58;;;20.50;99.90;;;20.94;69.53;100040.78;4860224;29;20057;-61
2022/05/23 09:41:03;;;;;;;23.90;17.63;;;20.50;99.90;;;21.36;69.30;100038.19;4859613;29;20148;-61
2022/05/23 09:49:15;;;;;;;22.85;17.63;;;21.40;99.90;;;21.94;65.81;100019.25;4836736;29;20054;-60
2022/05/23 09:51:55;;;;;;;27.30;17.05;;;21.60;99.90;;;22.03;64.54;100010.56;4860034;29;20492;-62
2022/05/23 09:54:32;;;;;;;24.90;15.60;;;21.70;99.90;;;22.25;63.96;100011.78;4858730;29;20480;-61
2022/05/23 09:57:04;;;;;;;23.65;16.33;;;21.90;99.90;;;22.41;63.79;100011.63;4860016;29;20496;-61
2022/05/23 09:59:36;;;;;;;21.10;15.75;;;22.00;99.90;;;22.47;63.29;100003.16;4859683;29;20113;-61
2022/05/23 10:02:23;;;;;;;23.85;16.83;;;22.10;99.90;;;22.57;63.00;99992.63;4858317;29;20478;-61
2022/05/23 10:04:52;;;;;;;17.52;14.43;;;22.20;99.90;;;22.63;62.65;100001.16;4858649;29;20471;-61
2022/05/23 10:07:23;;;;;;;20.35;14.90;;;22.30;99.90;;;22.74;62.38;99987.84;4859827;29;20042;-62
2022/05/23 10:09:58;;;;;;;18.90;14.80;;;22.40;99.90;;;22.80;62.80;99994.63;4859735;29;20049;-63
2022/05/23 10:12:35;;;;;;;23.13;15.50;;;22.40;99.90;;;22.86;62.58;99994.22;4858111;29;20441;-61
2022/05/23 10:15:13;;;;;;;24.65;15.75;;;22.60;99.90;;;22.94;62.02;99978.34;4859976;29;20049;-61
2022/05/23 10:17:43;;;;;;;23.50;16.10;;;22.60;99.90;;;22.85;61.89;99955.59;4859899;29;20477;-62
2022/05/23 10:20:24;;;;;;;21.58;15.77;;;22.60;99.90;;;23.05;62.01;99970.38;4859428;29;20046;-62
2022/05/23 10:23:00;;;;;;;24.02;16.42;;;22.70;99.90;;;23.07;62.20;99971.16;4860061;29;20092;-62
2022/05/23 10:25:38;;;;;;;23.00;15.18;;;22.70;99.90;;;23.16;62.35;99967.78;4859739;29;20154;-62
2022/05/23 10:28:14;;;;;;;24.67;16.80;;;22.80;99.90;;;23.26;62.18;99972.44;4859568;29;20435;-62
2022/05/23 10:30:58;;;;;;;23.70;16.52;;;22.90;99.90;;;23.25;61.81;99948.25;4859449;29;20141;-63
2022/05/23 10:33:30;;;;;;;21.05;15.57;;;23.10;99.90;;;23.42;61.42;99971.38;4859534;29;20072;-63
2022/05/23 10:36:05;;;;;;;21.40;15.73;;;23.10;99.90;;;23.50;61.27;99967.13;4859260;29;20080;-61
2022/05/23 10:44:34;;;;;;;21.67;15.50;;;23.20;99.90;;;23.74;60.35;99951.00;4862775;29;20053;-62
2022/05/23 10:47:17;;;;;;;20.08;14.13;;;23.40;99.90;;;23.95;59.33;99952.13;4863184;29;20128;-62
2022/05/23 10:49:54;;;;;;;22.15;14.48;;;23.60;99.90;;;24.01;58.81;99939.03;4862739;29;20045;-62
2022/05/23 10:52:33;;;;;;;22.83;15.20;;;23.70;99.90;;;24.17;58.13;99944.19;4863150;29;20061;-62
2022/05/23 10:55:13;;;;;;;21.38;15.77;;;23.80;99.90;;;24.23;57.66;99938.31;4863240;29;20053;-62
2022/05/23 10:58:00;;;;;;;18.90;14.75;;;23.90;99.90;;;24.20;57.90;99927.72;4862722;29;20456;-62
2022/05/23 11:00:37;;;;;;;22.00;16.38;;;23.90;99.90;;;24.32;57.57;99932.22;4862763;29;20061;-62
2022/05/23 11:03:15;;;;;;;22.00;16.35;;;24.00;99.90;;;24.40;57.41;99921.69;4862812;29;20418;-62
2022/05/23 11:05:51;;;;;;;19.05;16.13;;;24.10;99.90;;;24.39;57.17;99913.69;4862859;29;20132;-62
2022/05/23 11:08:51;;;;;;;21.38;15.57;;;24.10;99.90;;;24.49;57.85;99912.00;4862538;29;20050;-62
2022/05/23 11:11:41;;;;;;;20.63;16.30;;;24.10;99.90;;;24.52;57.68;99909.94;4862672;29;20375;-62
2022/05/23 11:14:19;;;;;;;23.33;18.20;;;24.20;99.90;;;24.44;57.89;99906.09;4862754;29;20100;-62
2022/05/23 11:17:03;;;;;;;25.30;18.33;;;24.10;99.90;;;24.46;58.36;99907.69;4862573;29;20133;-62
2022/05/23 11:19:48;;;;;;;21.00;16.55;;;24.10;99.90;;;24.48;58.89;99904.88;4862519;29;20502;-62
2022/05/23 11:22:22;;;;;;;22.55;17.35;;;24.10;99.90;;;24.30;58.81;99899.03;4862431;29;20570;-61
2022/05/23 11:25:02;;;;;;;24.85;18.05;;;24.00;99.90;;;24.26;58.24;99896.66;4861071;29;20506;-61